sensor_id;sensor_type;location;lat;lon;timestamp;pressure;altitude;pressure_sealevel;temperature;humidity
71165;BME280;58859;55.132;-1.586;2024-01-16T00:00:53;100601.72;;;6.64;100.00
71165;BME280;58859;55.132;-1.586;2024-01-16T00:03:19;100604.44;;;7.55;100.00
71165;BME280;58859;55.132;-1.586;2024-01-16T00:05:44;100612.25;;;5.75;100.00
71165;BME280;58859;55.132;-1.586;2024-01-16T00:08:10;100612.75;;;6.86;100.00
71165;BME280;58859;55.132;-1.586;2024-01-16T00:10:35;100603.88;;;7.30;100.00
71165;BME280;58859;55.132;-1.586;2024-01-16T00:13:01;100606.06;;;6.84;100.00
71165;BME280;58859;55.132;-1.586;2024-01-16T00:15:26;100603.28;;;6.76;100.00
71165;BME280;58859;55.132;-1.586;2024-01-16T00:17:51;100599.38;;;6.61;100.00
71165;BME280;58859;55.132;-1.586;2024-01-16T00:20:17;100596.13;;;6.05;100.00
71165;BME280;58859;55.132;-1.586;2024-01-16T00:22:43;100592.91;;;6.34;100.00
71165;BME280;58859;55.132;-1.586;2024-01-16T00:25:08;100563.69;;;7.17;100.00
71165;BME280;58859;55.132;-1.586;2024-01-16T00:27:34;100581.09;;;7.15;100.00
71165;BME280;58859;55.132;-1.586;2024-01-16T00:30:00;100578.66;;;6.72;100.00
71165;BME280;58859;55.132;-1.586;2024-01-16T00:32:25;100578.19;;;6.14;100.00
71165;BME280;58859;55.132;-1.586;2024-01-16T00:34:50;100577.16;;;6.38;100.00
71165;BME280;58859;55.132;-1.586;2024-01-16T00:37:16;100572.81;;;6.59;100.00
71165;BME280;58859;55.132;-1.586;2024-01-16T00:39:42;100579.38;;;7.04;100.00
71165;BME280;58859;55.132;-1.586;2024-01-16T00:42:07;100574.00;;;6.86;100.00
71165;BME280;58859;55.132;-1.586;2024-01-16T00:44:33;100563.06;;;7.04;100.00
71165;BME280;58859;55.132;-1.586;2024-01-16T00:47:00;100567.28;;;6.43;100.00
71165;BME280;58859;55.132;-1.586;2024-01-16T00:49:27;100553.66;;;7.33;100.00
71165;BME280;58859;55.132;-1.586;2024-01-16T00:51:53;100542.59;;;6.50;100.00
71165;BME280;58859;55.132;-1.586;2024-01-16T00:54:18;100552.88;;;6.61;100.00
71165;BME280;58859;55.132;-1.586;2024-01-16T00:56:43;100552.09;;;6.90;100.00
71165;BME280;58859;55.132;-1.586;2024-01-16T00:59:09;100546.88;;;6.60;100.00
71165;BME280;58859;55.132;-1.586;2024-01-16T01:01:37;100554.56;;;6.51;100.00
71165;BME280;58859;55.132;-1.586;2024-01-16T01:04:03;100563.47;;;6.58;100.00
71165;BME280;58859;55.132;-1.586;2024-01-16T01:06:28;100552.72;;;6.42;100.00
71165;BME280;58859;55.132;-1.586;2024-01-16T01:08:53;100553.13;;;5.72;100.00
71165;BME280;58859;55.132;-1.586;2024-01-16T01:11:19;100544.81;;;5.57;100.00
71165;BME280;58859;55.132;-1.586;2024-01-16T01:13:44;100541.16;;;6.77;100.00
71165;BME280;58859;55.132;-1.586;2024-01-16T01:16:10;100539.00;;;7.13;100.00
71165;BME280;58859;55.132;-1.586;2024-01-16T01:18:35;100537.81;;;6.86;100.00
71165;BME280;58859;55.132;-1.586;2024-01-16T01:21:00;100524.09;;;7.26;100.00
71165;BME280;58859;55.132;-1.586;2024-01-16T01:23:26;100520.66;;;7.56;100.00
71165;BME280;58859;55.132;-1.586;2024-01-16T01:25:51;100515.78;;;7.62;100.00
71165;BME280;58859;55.132;-1.586;2024-01-16T01:28:17;100506.16;;;8.02;100.00
71165;BME280;58859;55.132;-1.586;2024-01-16T01:30:42;100511.47;;;8.68;100.00
71165;BME280;58859;55.132;-1.586;2024-01-16T01:33:08;100506.41;;;8.66;100.00
71165;BME280;58859;55.132;-1.586;2024-01-16T01:35:33;100501.06;;;7.72;100.00
71165;BME280;58859;55.132;-1.586;2024-01-16T01:37:59;100491.59;;;8.30;100.00
71165;BME280;58859;55.132;-1.586;2024-01-16T01:40:24;100489.22;;;7.70;100.00
71165;BME280;58859;55.132;-1.586;2024-01-16T01:42:50;100485.16;;;7.27;100.00
71165;BME280;58859;55.132;-1.586;2024-01-16T01:45:15;100491.53;;;7.63;100.00
71165;BME280;58859;55.132;-1.586;2024-01-16T01:47:41;100498.66;;;7.80;100.00
71165;BME280;58859;55.132;-1.586;2024-01-16T01:50:10;100494.41;;;7.20;100.00
71165;BME280;58859;55.132;-1.586;2024-01-16T01:52:39;100497.97;;;6.99;100.00
71165;BME280;58859;55.132;-1.586;2024-01-16T01:55:09;100495.41;;;6.99;100.00
71165;BME280;58859;55.132;-1.586;2024-01-16T01:57:35;100496.44;;;6.86;100.00
71165;BME280;58859;55.132;-1.586;2024-01-16T02:00:01;100490.09;;;6.28;100.00
71165;BME280;58859;55.132;-1.586;2024-01-16T02:02:28;100480.16;;;6.24;100.00
71165;BME280;58859;55.132;-1.586;2024-01-16T02:04:54;100483.78;;;5.47;100.00
71165;BME280;58859;55.132;-1.586;2024-01-16T02:07:20;100479.44;;;5.14;100.00
71165;BME280;58859;55.132;-1.586;2024-01-16T02:09:46;100471.59;;;5.80;100.00
71165;BME280;58859;55.132;-1.586;2024-01-16T02:12:12;100462.19;;;5.91;100.00
71165;BME280;58859;55.132;-1.586;2024-01-16T02:14:37;100456.78;;;5.51;100.00
71165;BME280;58859;55.132;-1.586;2024-01-16T02:17:03;100463.88;;;5.15;100.00
71165;BME280;58859;55.132;-1.586;2024-01-16T02:19:28;100461.66;;;5.76;100.00
71165;BME280;58859;55.132;-1.586;2024-01-16T02:21:59;100453.38;;;6.04;100.00
71165;BME280;58859;55.132;-1.586;2024-01-16T02:24:25;100446.72;;;5.37;100.00
71165;BME280;58859;55.132;-1.586;2024-01-16T02:26:50;100451.63;;;5.62;100.00
71165;BME280;58859;55.132;-1.586;2024-01-16T02:29:16;100447.19;;;5.53;100.00
71165;BME280;58859;55.132;-1.586;2024-01-16T02:31:41;100443.09;;;6.55;100.00
71165;BME280;58859;55.132;-1.586;2024-01-16T02:34:07;100440.88;;;5.89;100.00
71165;BME280;58859;55.132;-1.586;2024-01-16T02:36:34;100448.00;;;5.53;100.00
71165;BME280;58859;55.132;-1.586;2024-01-16T02:38:59;100446.53;;;5.06;100.00
71165;BME280;58859;55.132;-1.586;2024-01-16T02:41:25;100446.38;;;5.95;100.00
71165;BME280;58859;55.132;-1.586;2024-01-16T02:43:50;100432.44;;;6.49;100.00
71165;BME280;58859;55.132;-1.586;2024-01-16T02:46:16;100431.41;;;6.10;100.00
71165;BME280;58859;55.132;-1.586;2024-01-16T02:48:42;100440.03;;;7.01;100.00
71165;BME280;58859;55.132;-1.586;2024-01-16T02:51:08;100429.00;;;6.99;100.00
71165;BME280;58859;55.132;-1.586;2024-01-16T02:53:33;100435.50;;;7.33;100.00
71165;BME280;58859;55.132;-1.586;2024-01-16T02:55:59;100424.22;;;7.53;100.00
71165;BME280;58859;55.132;-1.586;2024-01-16T02:58:26;100417.09;;;7.17;100.00
71165;BME280;58859;55.132;-1.586;2024-01-16T03:00:51;100417.09;;;7.17;100.00
71165;BME280;58859;55.132;-1.586;2024-01-16T03:03:17;100413.81;;;7.25;100.00
71165;BME280;58859;55.132;-1.586;2024-01-16T03:05:44;100409.81;;;7.02;100.00
71165;BME280;58859;55.132;-1.586;2024-01-16T03:08:09;100413.69;;;6.47;100.00
71165;BME280;58859;55.132;-1.586;2024-01-16T03:10:35;100408.00;;;5.91;100.00
71165;BME280;58859;55.132;-1.586;2024-01-16T03:13:01;100410.97;;;6.78;100.00
71165;BME280;58859;55.132;-1.586;2024-01-16T03:15:26;100406.31;;;6.42;100.00
71165;BME280;58859;55.132;-1.586;2024-01-16T03:17:52;100411.66;;;7.30;100.00
71165;BME280;58859;55.132;-1.586;2024-01-16T03:20:17;100408.22;;;7.10;100.00
71165;BME280;58859;55.132;-1.586;2024-01-16T03:22:44;100400.28;;;6.62;100.00
71165;BME280;58859;55.132;-1.586;2024-01-16T03:25:10;100400.38;;;6.51;100.00
71165;BME280;58859;55.132;-1.586;2024-01-16T03:27:37;100406.00;;;6.15;100.00
71165;BME280;58859;55.132;-1.586;2024-01-16T03:30:03;100412.28;;;6.22;100.00
71165;BME280;58859;55.132;-1.586;2024-01-16T03:32:29;100402.84;;;5.91;100.00
71165;BME280;58859;55.132;-1.586;2024-01-16T03:34:54;100392.91;;;5.86;100.00
71165;BME280;58859;55.132;-1.586;2024-01-16T03:37:20;100393.69;;;6.18;100.00
71165;BME280;58859;55.132;-1.586;2024-01-16T03:39:45;100372.69;;;6.32;100.00
71165;BME280;58859;55.132;-1.586;2024-01-16T03:42:11;100388.13;;;6.23;100.00
71165;BME280;58859;55.132;-1.586;2024-01-16T03:44:40;100380.34;;;5.93;100.00
71165;BME280;58859;55.132;-1.586;2024-01-16T03:47:06;100368.78;;;6.17;100.00
71165;BME280;58859;55.132;-1.586;2024-01-16T03:49:32;100375.03;;;5.94;100.00
71165;BME280;58859;55.132;-1.586;2024-01-16T03:51:57;100369.88;;;6.15;100.00
71165;BME280;58859;55.132;-1.586;2024-01-16T03:54:23;100373.72;;;6.00;100.00
71165;BME280;58859;55.132;-1.586;2024-01-16T03:56:48;100363.25;;;5.49;100.00
71165;BME280;58859;55.132;-1.586;2024-01-16T03:59:14;100360.13;;;5.66;100.00
71165;BME280;58859;55.132;-1.586;2024-01-16T04:01:39;100363.25;;;5.49;100.00
71165;BME280;58859;55.132;-1.586;2024-01-16T04:04:06;100371.38;;;5.65;100.00
71165;BME280;58859;55.132;-1.586;2024-01-16T04:06:32;100371.72;;;5.40;100.00
71165;BME280;58859;55.132;-1.586;2024-01-16T04:08:58;100361.63;;;5.05;100.00
71165;BME280;58859;55.132;-1.586;2024-01-16T04:11:23;100360.72;;;5.38;100.00
71165;BME280;58859;55.132;-1.586;2024-01-16T04:13:49;100354.94;;;5.45;100.00
71165;BME280;58859;55.132;-1.586;2024-01-16T04:16:15;100353.13;;;6.09;100.00
71165;BME280;58859;55.132;-1.586;2024-01-16T04:18:42;100353.06;;;5.47;100.00
71165;BME280;58859;55.132;-1.586;2024-01-16T04:21:08;100347.63;;;5.61;100.00
71165;BME280;58859;55.132;-1.586;2024-01-16T04:23:33;100348.84;;;5.46;100.00
71165;BME280;58859;55.132;-1.586;2024-01-16T04:25:59;100351.06;;;5.71;100.00
71165;BME280;58859;55.132;-1.586;2024-01-16T04:28:25;100342.97;;;6.17;100.00
71165;BME280;58859;55.132;-1.586;2024-01-16T04:30:50;100319.88;;;6.56;100.00
71165;BME280;58859;55.132;-1.586;2024-01-16T04:33:16;100325.63;;;6.59;100.00
71165;BME280;58859;55.132;-1.586;2024-01-16T04:35:41;100314.53;;;6.08;100.00
71165;BME280;58859;55.132;-1.586;2024-01-16T04:38:07;100324.16;;;5.85;100.00
71165;BME280;58859;55.132;-1.586;2024-01-16T04:40:33;100324.03;;;5.34;100.00
71165;BME280;58859;55.132;-1.586;2024-01-16T04:42:59;100323.56;;;6.23;100.00
71165;BME280;58859;55.132;-1.586;2024-01-16T04:45:24;100313.59;;;5.88;100.00
71165;BME280;58859;55.132;-1.586;2024-01-16T04:47:50;100317.44;;;5.94;100.00
71165;BME280;58859;55.132;-1.586;2024-01-16T04:50:15;100314.50;;;6.28;100.00
71165;BME280;58859;55.132;-1.586;2024-01-16T04:52:41;100304.53;;;6.54;100.00
71165;BME280;58859;55.132;-1.586;2024-01-16T04:55:06;100296.88;;;6.83;100.00
71165;BME280;58859;55.132;-1.586;2024-01-16T04:57:33;100283.34;;;6.20;100.00
71165;BME280;58859;55.132;-1.586;2024-01-16T04:59:58;100280.84;;;5.68;100.00
71165;BME280;58859;55.132;-1.586;2024-01-16T05:02:24;100287.72;;;5.99;100.00
71165;BME280;58859;55.132;-1.586;2024-01-16T05:04:49;100282.41;;;5.59;100.00
71165;BME280;58859;55.132;-1.586;2024-01-16T05:07:18;100286.41;;;5.63;100.00
71165;BME280;58859;55.132;-1.586;2024-01-16T05:09:46;100282.13;;;5.94;100.00
71165;BME280;58859;55.132;-1.586;2024-01-16T05:12:11;100269.41;;;6.32;100.00
71165;BME280;58859;55.132;-1.586;2024-01-16T05:14:37;100270.47;;;6.89;100.00
71165;BME280;58859;55.132;-1.586;2024-01-16T05:17:02;100277.25;;;6.21;100.00
71165;BME280;58859;55.132;-1.586;2024-01-16T05:19:28;100274.00;;;5.57;100.00
71165;BME280;58859;55.132;-1.586;2024-01-16T05:21:53;100266.19;;;6.50;100.00
71165;BME280;58859;55.132;-1.586;2024-01-16T05:24:19;100269.66;;;6.39;100.00
71165;BME280;58859;55.132;-1.586;2024-01-16T05:26:45;100262.19;;;7.05;100.00
71165;BME280;58859;55.132;-1.586;2024-01-16T05:29:10;100254.13;;;6.20;100.00
71165;BME280;58859;55.132;-1.586;2024-01-16T05:31:40;100242.56;;;6.73;100.00
71165;BME280;58859;55.132;-1.586;2024-01-16T05:34:06;100248.84;;;6.80;100.00
71165;BME280;58859;55.132;-1.586;2024-01-16T05:36:32;100240.00;;;6.83;100.00
71165;BME280;58859;55.132;-1.586;2024-01-16T05:38:57;100234.81;;;6.92;100.00
71165;BME280;58859;55.132;-1.586;2024-01-16T05:41:22;100225.28;;;5.85;100.00
71165;BME280;58859;55.132;-1.586;2024-01-16T05:43:48;100219.56;;;5.81;100.00
71165;BME280;58859;55.132;-1.586;2024-01-16T05:46:13;100211.91;;;5.29;100.00
71165;BME280;58859;55.132;-1.586;2024-01-16T05:48:39;100215.50;;;5.37;100.00
71165;BME280;58859;55.132;-1.586;2024-01-16T05:51:04;100215.16;;;5.72;100.00
71165;BME280;58859;55.132;-1.586;2024-01-16T05:53:30;100198.47;;;4.73;100.00
71165;BME280;58859;55.132;-1.586;2024-01-16T05:55:55;100201.75;;;5.99;100.00
71165;BME280;58859;55.132;-1.586;2024-01-16T05:58:22;100170.50;;;5.51;100.00
71165;BME280;58859;55.132;-1.586;2024-01-16T06:00:47;100203.84;;;5.43;100.00
71165;BME280;58859;55.132;-1.586;2024-01-16T06:03:13;100209.19;;;5.92;100.00
71165;BME280;58859;55.132;-1.586;2024-01-16T06:05:38;100197.84;;;5.33;100.00
71165;BME280;58859;55.132;-1.586;2024-01-16T06:08:04;100194.03;;;4.95;100.00
71165;BME280;58859;55.132;-1.586;2024-01-16T06:10:29;100192.63;;;5.95;100.00
71165;BME280;58859;55.132;-1.586;2024-01-16T06:12:55;100186.69;;;5.11;100.00
71165;BME280;58859;55.132;-1.586;2024-01-16T06:15:20;100192.09;;;5.29;100.00
71165;BME280;58859;55.132;-1.586;2024-01-16T06:17:46;100198.63;;;5.54;100.00
71165;BME280;58859;55.132;-1.586;2024-01-16T06:20:11;100193.78;;;5.60;100.00
71165;BME280;58859;55.132;-1.586;2024-01-16T06:22:37;100190.22;;;5.82;100.00
71165;BME280;58859;55.132;-1.586;2024-01-16T06:25:02;100182.25;;;5.13;100.00
71165;BME280;58859;55.132;-1.586;2024-01-16T06:27:28;100181.97;;;5.58;100.00
71165;BME280;58859;55.132;-1.586;2024-01-16T06:29:53;100175.28;;;5.76;100.00
71165;BME280;58859;55.132;-1.586;2024-01-16T06:32:19;100167.28;;;6.09;100.00
71165;BME280;58859;55.132;-1.586;2024-01-16T06:34:44;100167.50;;;7.04;100.00
71165;BME280;58859;55.132;-1.586;2024-01-16T06:37:09;100163.13;;;7.14;100.00
71165;BME280;58859;55.132;-1.586;2024-01-16T06:39:36;100163.81;;;6.87;100.00
71165;BME280;58859;55.132;-1.586;2024-01-16T06:42:02;100167.69;;;6.14;100.00
71165;BME280;58859;55.132;-1.586;2024-01-16T06:44:29;100154.31;;;6.00;100.00
71165;BME280;58859;55.132;-1.586;2024-01-16T06:46:55;100154.78;;;5.84;100.00
71165;BME280;58859;55.132;-1.586;2024-01-16T06:49:20;100139.50;;;6.02;100.00
71165;BME280;58859;55.132;-1.586;2024-01-16T06:51:46;100138.50;;;5.84;100.00
71165;BME280;58859;55.132;-1.586;2024-01-16T06:54:11;100134.69;;;6.27;100.00
71165;BME280;58859;55.132;-1.586;2024-01-16T06:56:38;100139.72;;;6.29;100.00
71165;BME280;58859;55.132;-1.586;2024-01-16T06:59:03;100133.44;;;5.82;100.00
71165;BME280;58859;55.132;-1.586;2024-01-16T07:01:29;100128.94;;;5.74;100.00
71165;BME280;58859;55.132;-1.586;2024-01-16T07:03:55;100127.81;;;5.58;100.00
71165;BME280;58859;55.132;-1.586;2024-01-16T07:06:21;100118.22;;;6.19;100.00
71165;BME280;58859;55.132;-1.586;2024-01-16T07:08:46;100122.44;;;5.80;100.00
71165;BME280;58859;55.132;-1.586;2024-01-16T07:11:12;100116.91;;;6.44;100.00
71165;BME280;58859;55.132;-1.586;2024-01-16T07:13:39;100120.81;;;6.19;100.00
71165;BME280;58859;55.132;-1.586;2024-01-16T07:16:09;100117.94;;;6.22;100.00
71165;BME280;58859;55.132;-1.586;2024-01-16T07:18:34;100116.84;;;6.05;100.00
71165;BME280;58859;55.132;-1.586;2024-01-16T07:21:00;100116.72;;;5.67;100.00
71165;BME280;58859;55.132;-1.586;2024-01-16T07:23:25;100110.84;;;5.95;100.00
71165;BME280;58859;55.132;-1.586;2024-01-16T07:25:51;100106.22;;;5.59;100.00
71165;BME280;58859;55.132;-1.586;2024-01-16T07:28:16;100105.81;;;5.94;100.00
71165;BME280;58859;55.132;-1.586;2024-01-16T07:30:41;100111.41;;;5.68;100.00
71165;BME280;58859;55.132;-1.586;2024-01-16T07:33:07;100107.09;;;6.18;100.00
71165;BME280;58859;55.132;-1.586;2024-01-16T07:35:32;100108.00;;;6.08;100.00
71165;BME280;58859;55.132;-1.586;2024-01-16T07:37:58;100105.06;;;6.12;100.00
71165;BME280;58859;55.132;-1.586;2024-01-16T07:40:24;100101.22;;;5.97;100.00
71165;BME280;58859;55.132;-1.586;2024-01-16T07:42:49;100102.28;;;5.95;100.00
71165;BME280;58859;55.132;-1.586;2024-01-16T07:45:15;100082.91;;;6.48;100.00
71165;BME280;58859;55.132;-1.586;2024-01-16T07:47:40;100092.97;;;6.80;100.00
71165;BME280;58859;55.132;-1.586;2024-01-16T07:50:07;100096.78;;;5.78;100.00
71165;BME280;58859;55.132;-1.586;2024-01-16T07:52:32;100105.06;;;5.82;100.00
71165;BME280;58859;55.132;-1.586;2024-01-16T07:54:58;100094.97;;;6.00;100.00
71165;BME280;58859;55.132;-1.586;2024-01-16T07:57:23;100098.78;;;6.05;100.00
71165;BME280;58859;55.132;-1.586;2024-01-16T07:59:48;100094.44;;;6.25;100.00
71165;BME280;58859;55.132;-1.586;2024-01-16T08:02:14;100091.13;;;5.85;100.00
71165;BME280;58859;55.132;-1.586;2024-01-16T08:04:39;100091.56;;;5.99;100.00
71165;BME280;58859;55.132;-1.586;2024-01-16T08:07:05;100079.78;;;6.25;100.00
71165;BME280;58859;55.132;-1.586;2024-01-16T08:09:30;100072.41;;;6.02;100.00
71165;BME280;58859;55.132;-1.586;2024-01-16T08:11:56;100055.88;;;6.43;100.00
71165;BME280;58859;55.132;-1.586;2024-01-16T08:14:21;100064.97;;;6.66;100.00
71165;BME280;58859;55.132;-1.586;2024-01-16T08:16:46;100067.00;;;6.43;100.00
71165;BME280;58859;55.132;-1.586;2024-01-16T08:19:13;100061.56;;;6.56;100.00
71165;BME280;58859;55.132;-1.586;2024-01-16T08:21:38;100058.84;;;6.67;100.00
71165;BME280;58859;55.132;-1.586;2024-01-16T08:24:04;100063.47;;;6.34;100.00
71165;BME280;58859;55.132;-1.586;2024-01-16T08:26:30;100061.31;;;6.49;100.00
71165;BME280;58859;55.132;-1.586;2024-01-16T08:28:55;100053.44;;;6.41;100.00
71165;BME280;58859;55.132;-1.586;2024-01-16T08:31:21;100049.97;;;7.35;100.00
71165;BME280;58859;55.132;-1.586;2024-01-16T08:33:46;100041.75;;;7.39;100.00
71165;BME280;58859;55.132;-1.586;2024-01-16T08:36:13;100041.19;;;6.24;100.00
71165;BME280;58859;55.132;-1.586;2024-01-16T08:38:39;100039.50;;;6.80;100.00
71165;BME280;58859;55.132;-1.586;2024-01-16T08:41:04;100037.78;;;6.52;100.00
71165;BME280;58859;55.132;-1.586;2024-01-16T08:43:33;100035.22;;;6.99;100.00
71165;BME280;58859;55.132;-1.586;2024-01-16T08:45:58;100028.41;;;6.32;100.00
71165;BME280;58859;55.132;-1.586;2024-01-16T08:48:24;100028.94;;;6.55;100.00
71165;BME280;58859;55.132;-1.586;2024-01-16T08:50:49;100015.06;;;7.12;100.00
71165;BME280;58859;55.132;-1.586;2024-01-16T08:53:15;100025.25;;;6.67;100.00
71165;BME280;58859;55.132;-1.586;2024-01-16T08:55:40;100020.97;;;6.94;100.00
71165;BME280;58859;55.132;-1.586;2024-01-16T08:58:05;100013.16;;;7.14;100.00
71165;BME280;58859;55.132;-1.586;2024-01-16T09:00:31;100005.78;;;7.19;100.00
71165;BME280;58859;55.132;-1.586;2024-01-16T09:02:56;100002.63;;;7.25;100.00
71165;BME280;58859;55.132;-1.586;2024-01-16T09:05:22;100004.31;;;7.07;100.00
71165;BME280;58859;55.132;-1.586;2024-01-16T09:07:50;99995.75;;;6.69;100.00
71165;BME280;58859;55.132;-1.586;2024-01-16T09:10:16;99974.66;;;7.01;100.00
71165;BME280;58859;55.132;-1.586;2024-01-16T09:12:42;99986.88;;;7.45;100.00
71165;BME280;58859;55.132;-1.586;2024-01-16T09:15:08;99975.97;;;7.87;100.00
71165;BME280;58859;55.132;-1.586;2024-01-16T09:17:33;99972.22;;;7.36;100.00
71165;BME280;58859;55.132;-1.586;2024-01-16T09:19:59;99965.25;;;5.98;100.00
71165;BME280;58859;55.132;-1.586;2024-01-16T09:22:24;99966.06;;;7.82;100.00
71165;BME280;58859;55.132;-1.586;2024-01-16T09:24:50;99968.84;;;7.53;100.00
71165;BME280;58859;55.132;-1.586;2024-01-16T09:27:15;99969.09;;;7.95;100.00
71165;BME280;58859;55.132;-1.586;2024-01-16T09:29:41;99962.50;;;8.36;100.00
71165;BME280;58859;55.132;-1.586;2024-01-16T09:32:07;99951.19;;;8.02;100.00
71165;BME280;58859;55.132;-1.586;2024-01-16T09:34:33;99963.81;;;8.23;100.00
71165;BME280;58859;55.132;-1.586;2024-01-16T09:36:58;99964.31;;;8.44;100.00
71165;BME280;58859;55.132;-1.586;2024-01-16T09:39:26;99970.72;;;8.57;100.00
71165;BME280;58859;55.132;-1.586;2024-01-16T09:41:52;99955.03;;;7.35;100.00
71165;BME280;58859;55.132;-1.586;2024-01-16T09:44:17;99964.69;;;7.43;100.00
71165;BME280;58859;55.132;-1.586;2024-01-16T09:46:44;99966.91;;;6.64;100.00
71165;BME280;58859;55.132;-1.586;2024-01-16T09:49:14;99964.13;;;6.85;100.00
71165;BME280;58859;55.132;-1.586;2024-01-16T09:51:42;99950.97;;;7.33;100.00
71165;BME280;58859;55.132;-1.586;2024-01-16T09:54:08;99943.28;;;8.47;100.00
71165;BME280;58859;55.132;-1.586;2024-01-16T09:56:35;99940.31;;;8.34;100.00
71165;BME280;58859;55.132;-1.586;2024-01-16T09:59:05;99942.97;;;8.06;100.00
71165;BME280;58859;55.132;-1.586;2024-01-16T10:01:33;99946.00;;;7.49;100.00
71165;BME280;58859;55.132;-1.586;2024-01-16T10:03:58;99924.66;;;7.82;100.00
71165;BME280;58859;55.132;-1.586;2024-01-16T10:06:27;99937.22;;;7.60;100.00
71165;BME280;58859;55.132;-1.586;2024-01-16T10:08:52;99931.31;;;7.22;100.00
71165;BME280;58859;55.132;-1.586;2024-01-16T10:11:18;99920.59;;;7.17;100.00
71165;BME280;58859;55.132;-1.586;2024-01-16T10:13:44;99918.19;;;7.33;100.00
71165;BME280;58859;55.132;-1.586;2024-01-16T10:16:10;99916.13;;;7.72;100.00
71165;BME280;58859;55.132;-1.586;2024-01-16T10:18:35;99914.88;;;7.59;100.00
71165;BME280;58859;55.132;-1.586;2024-01-16T10:21:03;99915.47;;;7.08;100.00
71165;BME280;58859;55.132;-1.586;2024-01-16T10:23:30;99909.88;;;8.36;100.00
71165;BME280;58859;55.132;-1.586;2024-01-16T10:26:11;99905.44;;;8.54;100.00
71165;BME280;58859;55.132;-1.586;2024-01-16T10:28:39;99899.81;;;8.33;100.00
71165;BME280;58859;55.132;-1.586;2024-01-16T10:31:09;99889.28;;;7.91;100.00
71165;BME280;58859;55.132;-1.586;2024-01-16T10:33:35;99893.53;;;7.74;100.00
71165;BME280;58859;55.132;-1.586;2024-01-16T10:38:34;99868.16;;;8.03;100.00
71165;BME280;58859;55.132;-1.586;2024-01-16T10:41:16;99866.69;;;8.01;100.00
71165;BME280;58859;55.132;-1.586;2024-01-16T10:44:03;99857.22;;;7.66;100.00
71165;BME280;58859;55.132;-1.586;2024-01-16T10:46:29;99810.72;;;7.39;100.00
71165;BME280;58859;55.132;-1.586;2024-01-16T10:49:02;99849.38;;;7.58;100.00
71165;BME280;58859;55.132;-1.586;2024-01-16T10:51:28;99854.44;;;8.03;100.00
71165;BME280;58859;55.132;-1.586;2024-01-16T10:53:59;99851.88;;;7.68;100.00
71165;BME280;58859;55.132;-1.586;2024-01-16T10:56:27;99847.97;;;7.64;100.00
71165;BME280;58859;55.132;-1.586;2024-01-16T10:59:25;99840.06;;;7.47;100.00
71165;BME280;58859;55.132;-1.586;2024-01-16T11:01:59;99835.53;;;7.67;100.00
71165;BME280;58859;55.132;-1.586;2024-01-16T11:04:27;99832.69;;;7.96;100.00
71165;BME280;58859;55.132;-1.586;2024-01-16T11:06:54;99821.09;;;8.59;100.00
71165;BME280;58859;55.132;-1.586;2024-01-16T11:09:20;99812.44;;;9.01;100.00
71165;BME280;58859;55.132;-1.586;2024-01-16T11:11:46;99815.44;;;8.30;100.00
71165;BME280;58859;55.132;-1.586;2024-01-16T11:14:15;99806.25;;;8.44;100.00
71165;BME280;58859;55.132;-1.586;2024-01-16T11:16:42;99802.88;;;7.92;100.00
71165;BME280;58859;55.132;-1.586;2024-01-16T11:19:10;99800.22;;;7.58;100.00
71165;BME280;58859;55.132;-1.586;2024-01-16T11:21:37;99776.53;;;8.56;100.00
71165;BME280;58859;55.132;-1.586;2024-01-16T11:24:04;99791.25;;;8.22;100.00
71165;BME280;58859;55.132;-1.586;2024-01-16T11:26:31;99783.22;;;8.33;100.00
71165;BME280;58859;55.132;-1.586;2024-01-16T11:29:39;99765.00;;;8.50;100.00
71165;BME280;58859;55.132;-1.586;2024-01-16T11:32:04;99764.84;;;8.52;100.00
71165;BME280;58859;55.132;-1.586;2024-01-16T11:37:12;99747.28;;;8.96;100.00
71165;BME280;58859;55.132;-1.586;2024-01-16T11:39:38;99743.56;;;8.82;100.00
71165;BME280;58859;55.132;-1.586;2024-01-16T11:42:04;99739.19;;;9.23;100.00
71165;BME280;58859;55.132;-1.586;2024-01-16T11:44:54;99742.09;;;9.28;100.00
71165;BME280;58859;55.132;-1.586;2024-01-16T11:47:22;99731.41;;;9.31;100.00
71165;BME280;58859;55.132;-1.586;2024-01-16T11:49:50;99723.59;;;8.75;100.00
71165;BME280;58859;55.132;-1.586;2024-01-16T11:52:42;99720.41;;;9.13;100.00
71165;BME280;58859;55.132;-1.586;2024-01-16T11:55:28;99724.44;;;9.32;100.00
71165;BME280;58859;55.132;-1.586;2024-01-16T12:00:55;99717.56;;;8.66;100.00
71165;BME280;58859;55.132;-1.586;2024-01-16T12:03:23;99721.69;;;8.85;100.00
71165;BME280;58859;55.132;-1.586;2024-01-16T12:06:02;99708.09;;;8.33;100.00
71165;BME280;58859;55.132;-1.586;2024-01-16T12:08:28;99701.59;;;7.61;100.00
71165;BME280;58859;55.132;-1.586;2024-01-16T12:10:54;99697.78;;;7.73;100.00
71165;BME280;58859;55.132;-1.586;2024-01-16T12:13:19;99687.72;;;7.19;100.00
71165;BME280;58859;55.132;-1.586;2024-01-16T12:15:45;99680.06;;;7.61;100.00
71165;BME280;58859;55.132;-1.586;2024-01-16T12:18:18;99669.84;;;7.25;100.00
71165;BME280;58859;55.132;-1.586;2024-01-16T12:20:43;99674.44;;;7.14;100.00
71165;BME280;58859;55.132;-1.586;2024-01-16T12:23:09;99667.44;;;7.06;100.00
71165;BME280;58859;55.132;-1.586;2024-01-16T12:25:36;99663.91;;;7.33;100.00
71165;BME280;58859;55.132;-1.586;2024-01-16T12:28:07;99651.06;;;6.80;100.00
71165;BME280;58859;55.132;-1.586;2024-01-16T12:30:37;99641.84;;;6.77;100.00
71165;BME280;58859;55.132;-1.586;2024-01-16T12:33:12;99640.13;;;6.33;100.00
71165;BME280;58859;55.132;-1.586;2024-01-16T12:35:44;99628.03;;;6.33;100.00
71165;BME280;58859;55.132;-1.586;2024-01-16T12:38:11;99624.94;;;6.65;100.00
71165;BME280;58859;55.132;-1.586;2024-01-16T12:40:40;99608.38;;;6.93;100.00
71165;BME280;58859;55.132;-1.586;2024-01-16T12:43:07;99601.00;;;7.07;100.00
71165;BME280;58859;55.132;-1.586;2024-01-16T12:45:34;99595.56;;;6.66;100.00
71165;BME280;58859;55.132;-1.586;2024-01-16T12:48:01;99575.91;;;6.30;100.00